KVPZ/VPZ METAR and TAF weather

Enter ICAO airport designator
Station Type Date Time Source
KVPZ METAR 2020/07/10 20:56 UTC NOAA

KVPZ 102056Z AUTO 32011G21KT 10SM CLR 28/19 A2985 RMK AO2 SLP102 T02780189 50002


Station Type Date Time Source
KVPZ Decoded METAR 2020/07/10 20:56 UTC NOAA

VALPARAISO PORTER CO MUNI, IN, United States (KVPZ) 41-27N 087-00W 231M
Jul 10, 2020 - 04:56 PM EDT / 2020.07.10 2056 UTC
Wind: from the NW (320 degrees) at 13 MPH (11 KT) gusting to 24 MPH (21 KT):0
Visibility: 10 mile(s):0
Sky conditions: clear
Temperature: 82.0 F (27.8 C)
Dew Point: 66.0 F (18.9 C)
Relative Humidity: 58%
Pressure (altimeter): 29.85 in. Hg (1010 hPa)
Pressure tendency: 0.01 inches (0.2 hPa) higher than three hours ago
ob: KVPZ 102056Z AUTO 32011G21KT 10SM CLR 28/19 A2985 RMK AO2 SLP102 T02780189 50002
cycle: 21

Station Type Date Time Source
KVPZ TAF UTC NOAA

Error!

Example: see airport list